createdAt,value
2022-12-07T00:01:23.223Z,10.95
2022-12-07T00:03:52.555Z,11.32
2022-12-07T00:06:20.623Z,11.34
2022-12-07T00:08:48.704Z,11.36
2022-12-07T00:11:18.371Z,11.11
2022-12-07T00:13:46.110Z,11.11
2022-12-07T00:16:18.508Z,11.37
2022-12-07T00:18:46.232Z,11.38
2022-12-07T00:21:15.617Z,11.28
2022-12-07T00:23:44.085Z,11.24
2022-12-07T00:26:16.402Z,11.01
2022-12-07T00:28:48.119Z,11.05
2022-12-07T00:31:16.218Z,11.57
2022-12-07T00:33:43.218Z,11.15
2022-12-07T00:36:13.047Z,11.16
2022-12-07T00:38:40.861Z,10.82
2022-12-07T00:41:19.277Z,11.12
2022-12-07T00:43:47.754Z,11.33
2022-12-07T00:46:15.681Z,11.31
2022-12-07T00:48:42.936Z,11.20
2022-12-07T00:51:11.962Z,11.13
2022-12-07T00:53:41.558Z,11.46
2022-12-07T00:56:10.956Z,11.37
2022-12-07T00:58:37.856Z,11.40
2022-12-07T01:01:06.638Z,11.29
2022-12-07T01:03:33.841Z,10.94
2022-12-07T01:06:01.133Z,11.36
2022-12-07T01:08:28.684Z,11.28
2022-12-07T01:11:16.343Z,11.11
2022-12-07T01:13:43.868Z,11.04
2022-12-07T01:16:13.558Z,11.38
2022-12-07T01:18:41.643Z,11.41
2022-12-07T01:21:14.469Z,11.02
2022-12-07T01:23:41.558Z,11.20
2022-12-07T01:26:12.331Z,11.53
2022-12-07T01:28:39.668Z,11.23
2022-12-07T01:31:13.073Z,10.70
2022-12-07T01:33:40.501Z,10.89
2022-12-07T01:36:31.644Z,11.04
2022-12-07T01:39:00.835Z,11.09
2022-12-07T01:41:34.235Z,10.75
2022-12-07T01:44:27.087Z,10.68
2022-12-07T01:46:56.860Z,10.85
2022-12-07T01:49:23.538Z,10.84
2022-12-07T01:51:52.116Z,11.16
2022-12-07T01:54:21.222Z,10.80
2022-12-07T01:56:54.717Z,10.88
2022-12-07T01:59:24.480Z,10.70
2022-12-07T02:01:51.945Z,10.82
2022-12-07T02:04:19.507Z,10.81
2022-12-07T02:06:47.935Z,10.83
2022-12-07T02:09:15.199Z,10.90
2022-12-07T02:11:42.410Z,11.01
2022-12-07T02:14:09.146Z,10.70
2022-12-07T02:16:48.315Z,10.90
2022-12-07T02:19:52.539Z,11.25
2022-12-07T02:22:28.178Z,11.05
2022-12-07T02:25:13.460Z,11.18
2022-12-07T02:27:53.430Z,11.21
2022-12-07T02:30:28.590Z,10.85
2022-12-07T02:33:25.622Z,11.24
2022-12-07T02:35:58.305Z,11.21
2022-12-07T02:38:37.141Z,11.00
2022-12-07T02:41:13.094Z,10.95
2022-12-07T02:43:52.113Z,10.90
2022-12-07T02:46:24.420Z,11.29
2022-12-07T02:48:52.981Z,11.10
2022-12-07T02:51:20.491Z,10.95
2022-12-07T02:53:47.244Z,10.91
2022-12-07T02:56:29.042Z,11.26
2022-12-07T02:59:22.849Z,11.13
2022-12-07T03:02:13.995Z,10.97
2022-12-07T03:05:07.064Z,10.96
2022-12-07T03:08:04.928Z,10.95
2022-12-07T03:11:11.779Z,11.22
2022-12-07T03:14:00.589Z,11.26
2022-12-07T03:17:11.172Z,11.08
2022-12-07T03:19:38.833Z,10.69
2022-12-07T03:22:12.399Z,10.69
2022-12-07T03:24:51.200Z,10.66
2022-12-07T03:27:25.741Z,10.88
2022-12-07T03:30:20.260Z,10.79
2022-12-07T03:32:56.604Z,10.58
2022-12-07T03:35:49.929Z,10.97
2022-12-07T03:38:22.964Z,11.18
2022-12-07T03:41:01.179Z,11.14
2022-12-07T03:43:30.716Z,11.12
2022-12-07T03:46:16.773Z,11.04
2022-12-07T03:49:22.218Z,11.14
2022-12-07T03:51:57.910Z,10.71
2022-12-07T03:54:48.770Z,11.00
2022-12-07T03:57:16.819Z,10.65
2022-12-07T03:59:44.396Z,10.61
2022-12-07T04:02:14.713Z,10.87
2022-12-07T04:04:44.144Z,10.80
2022-12-07T04:07:12.035Z,10.47
2022-12-07T04:09:39.605Z,10.36
2022-12-07T04:12:07.182Z,10.46
2022-12-07T04:14:34.898Z,10.67
2022-12-07T04:17:03.206Z,10.17
2022-12-07T04:19:33.268Z,10.54
2022-12-07T04:22:02.326Z,10.28
2022-12-07T04:24:29.678Z,10.20
2022-12-07T04:26:56.756Z,10.20
2022-12-07T04:29:23.763Z,10.35
2022-12-07T04:31:50.714Z,10.55
2022-12-07T04:34:18.875Z,10.25
2022-12-07T04:36:46.553Z,10.63
2022-12-07T04:39:20.076Z,10.46
2022-12-07T04:41:46.920Z,10.33
2022-12-07T04:44:14.762Z,10.21
2022-12-07T04:46:42.116Z,10.42
2022-12-07T04:49:09.179Z,9.98
2022-12-07T04:51:35.870Z,10.13
2022-12-07T04:54:02.622Z,10.00
2022-12-07T04:56:29.435Z,10.09
2022-12-07T04:58:56.691Z,10.16
2022-12-07T05:01:24.771Z,9.67
2022-12-07T05:03:51.792Z,9.96
2022-12-07T05:06:18.596Z,9.62
2022-12-07T05:08:45.594Z,9.54
2022-12-07T05:11:13.725Z,9.80
2022-12-07T05:13:40.494Z,9.61
2022-12-07T05:16:07.366Z,9.68
2022-12-07T05:18:34.067Z,9.28
2022-12-07T05:21:00.756Z,9.39
2022-12-07T05:23:27.484Z,9.25
2022-12-07T05:25:54.141Z,9.29
2022-12-07T05:28:20.910Z,9.68
2022-12-07T05:30:47.635Z,9.24
2022-12-07T05:33:14.299Z,9.54
2022-12-07T05:35:40.969Z,9.35
2022-12-07T05:38:07.707Z,9.24
2022-12-07T05:40:34.418Z,9.30
2022-12-07T05:43:04.495Z,9.71
2022-12-07T05:45:32.048Z,9.62
2022-12-07T05:47:58.801Z,9.42
2022-12-07T05:50:25.768Z,9.63
2022-12-07T05:52:52.558Z,9.37
2022-12-07T05:55:19.227Z,9.23
2022-12-07T05:57:46.092Z,9.44
2022-12-07T06:00:13.381Z,9.19
2022-12-07T06:02:40.178Z,9.26
2022-12-07T06:05:07.465Z,9.37
2022-12-07T06:07:34.220Z,9.27
2022-12-07T06:10:01.282Z,9.29
2022-12-07T06:12:28.296Z,9.29
2022-12-07T06:14:55.068Z,9.38
2022-12-07T06:17:21.744Z,9.56
2022-12-07T06:19:48.459Z,9.46
2022-12-07T06:22:15.449Z,9.50
2022-12-07T06:24:42.126Z,9.40
2022-12-07T06:27:09.092Z,9.50
2022-12-07T06:29:35.788Z,9.52
2022-12-07T06:32:02.564Z,9.31
2022-12-07T06:34:29.280Z,9.28
2022-12-07T06:36:56.275Z,9.51
2022-12-07T06:39:28.226Z,9.40
2022-12-07T06:41:55.328Z,9.34
2022-12-07T06:44:22.864Z,9.46
2022-12-07T06:46:51.182Z,9.19
2022-12-07T06:49:17.942Z,9.26
2022-12-07T06:51:44.652Z,9.44
2022-12-07T06:54:13.530Z,9.53
2022-12-07T06:56:40.590Z,9.42
2022-12-07T06:59:08.690Z,9.26
2022-12-07T07:01:36.567Z,9.38
2022-12-07T07:04:04.254Z,9.20
2022-12-07T07:06:30.980Z,9.27
2022-12-07T07:08:57.741Z,9.38
2022-12-07T07:11:24.473Z,9.41
2022-12-07T07:13:51.125Z,9.55
2022-12-07T07:16:17.860Z,9.28
2022-12-07T07:18:44.576Z,9.35
2022-12-07T07:21:11.247Z,9.54
2022-12-07T07:23:37.967Z,9.47
2022-12-07T07:26:04.870Z,9.30
2022-12-07T07:28:31.592Z,9.30
2022-12-07T07:30:58.317Z,9.32
2022-12-07T07:33:25.063Z,9.36
2022-12-07T07:35:51.783Z,9.36
2022-12-07T07:38:18.548Z,9.49
2022-12-07T07:40:45.216Z,9.62
2022-12-07T07:43:11.910Z,9.28
2022-12-07T07:45:38.885Z,9.42
2022-12-07T07:48:05.840Z,9.64
2022-12-07T07:50:32.468Z,9.69
2022-12-07T07:52:59.552Z,9.68
2022-12-07T07:55:26.317Z,9.54
2022-12-07T07:57:54.993Z,9.62
2022-12-07T08:00:22.730Z,9.44
2022-12-07T08:02:49.445Z,9.56
2022-12-07T08:05:16.624Z,9.34
2022-12-07T08:07:43.429Z,9.48
2022-12-07T08:10:12.350Z,9.75
2022-12-07T08:12:40.740Z,9.46
2022-12-07T08:15:07.829Z,9.49
2022-12-07T08:17:34.512Z,9.38
2022-12-07T08:20:01.513Z,9.71
2022-12-07T08:22:28.449Z,9.46
2022-12-07T08:24:55.131Z,9.68
2022-12-07T08:27:21.776Z,9.64
2022-12-07T08:29:48.452Z,9.61
2022-12-07T08:32:15.107Z,9.63
2022-12-07T08:34:41.883Z,9.70
2022-12-07T08:37:08.509Z,9.77
2022-12-07T08:39:35.253Z,9.67
2022-12-07T08:42:01.915Z,9.34
2022-12-07T08:44:28.630Z,9.33
2022-12-07T08:46:59.848Z,9.44
2022-12-07T08:49:40.399Z,9.31
2022-12-07T08:52:07.030Z,9.74
2022-12-07T08:54:37.695Z,9.78
2022-12-07T08:57:05.463Z,9.41
2022-12-07T08:59:34.186Z,9.71
2022-12-07T09:02:00.952Z,9.51
2022-12-07T09:04:27.721Z,9.50
2022-12-07T09:06:55.775Z,9.50
2022-12-07T09:09:22.683Z,9.49
2022-12-07T09:11:49.378Z,9.51
2022-12-07T09:14:16.018Z,9.54
2022-12-07T09:16:42.653Z,9.64
2022-12-07T09:19:09.494Z,9.45
2022-12-07T09:21:36.220Z,9.42
2022-12-07T09:24:02.983Z,9.69
2022-12-07T09:26:29.726Z,9.50
2022-12-07T09:28:56.377Z,9.65
2022-12-07T09:31:24.877Z,9.57
2022-12-07T09:34:00.538Z,9.34
2022-12-07T09:36:28.456Z,9.64
2022-12-07T09:38:55.231Z,9.59
2022-12-07T09:41:24.814Z,9.67
2022-12-07T09:43:52.247Z,9.62
2022-12-07T09:46:21.493Z,9.68
2022-12-07T09:48:50.344Z,9.35
2022-12-07T09:51:25.987Z,9.41
2022-12-07T09:53:55.217Z,9.50
2022-12-07T09:56:23.761Z,9.55
2022-12-07T09:58:52.788Z,9.48
2022-12-07T10:01:22.132Z,9.48
2022-12-07T10:04:12.328Z,9.39
2022-12-07T10:06:39.255Z,9.74
2022-12-07T10:09:17.216Z,9.48
2022-12-07T10:12:19.475Z,9.77
2022-12-07T10:15:07.428Z,9.42
2022-12-07T10:17:48.280Z,9.62
2022-12-07T10:20:26.535Z,9.70
2022-12-07T10:23:14.168Z,9.71
2022-12-07T10:25:41.028Z,9.45
2022-12-07T10:28:13.043Z,9.51
2022-12-07T10:30:53.966Z,9.55
2022-12-07T10:33:49.815Z,9.45
2022-12-07T10:36:22.497Z,9.43
2022-12-07T10:39:06.376Z,9.63
2022-12-07T10:41:33.040Z,9.65
2022-12-07T10:43:59.875Z,9.50
2022-12-07T10:46:53.346Z,9.33
2022-12-07T10:49:29.254Z,9.26
2022-12-07T10:52:40.522Z,9.51
2022-12-07T10:55:10.209Z,9.21
2022-12-07T10:58:09.892Z,9.51
2022-12-07T11:01:06.141Z,9.58
2022-12-07T11:03:32.835Z,9.36
2022-12-07T11:06:12.125Z,9.61
2022-12-07T11:09:01.182Z,9.53
2022-12-07T11:11:49.866Z,9.53
2022-12-07T11:14:30.272Z,9.44
2022-12-07T11:16:58.333Z,9.38
2022-12-07T11:19:48.297Z,9.30
2022-12-07T11:22:17.574Z,9.24
2022-12-07T11:24:56.305Z,9.50
2022-12-07T11:27:37.931Z,9.45
2022-12-07T11:30:12.393Z,9.20
2022-12-07T11:32:44.986Z,9.15
2022-12-07T11:35:45.182Z,9.31
2022-12-07T11:38:24.613Z,9.26
2022-12-07T11:41:02.267Z,9.59
2022-12-07T11:43:33.944Z,9.81
2022-12-07T11:46:17.052Z,10.46
2022-12-07T11:48:53.070Z,10.13
2022-12-07T11:51:22.290Z,10.33
2022-12-07T11:54:13.275Z,10.54
2022-12-07T11:56:41.047Z,10.61
2022-12-07T11:59:37.285Z,10.47
2022-12-07T12:02:17.620Z,10.93
2022-12-07T12:05:25.693Z,10.51
2022-12-07T12:11:20.034Z,10.08
2022-12-07T12:17:15.344Z,10.32
2022-12-07T12:20:04.290Z,10.09
2022-12-07T12:22:47.848Z,10.39
2022-12-07T12:25:55.448Z,10.53
2022-12-07T12:28:51.708Z,10.45
2022-12-07T12:31:21.041Z,10.17
2022-12-07T12:33:53.682Z,10.51
2022-12-07T12:36:25.629Z,10.20
2022-12-07T12:39:13.643Z,10.60
2022-12-07T12:41:40.840Z,10.23
2022-12-07T12:44:42.772Z,10.07
2022-12-07T12:47:41.848Z,10.04
2022-12-07T12:50:19.511Z,9.99
2022-12-07T12:53:05.821Z,9.83
2022-12-07T12:55:50.824Z,9.89
2022-12-07T12:58:20.474Z,10.08
2022-12-07T13:00:48.603Z,9.91
2022-12-07T13:03:52.570Z,9.96
2022-12-07T13:06:25.385Z,9.81
2022-12-07T13:08:54.291Z,9.81
2022-12-07T13:11:34.581Z,9.73
2022-12-07T13:14:38.348Z,9.82
2022-12-07T13:17:05.052Z,9.64
2022-12-07T13:19:44.805Z,9.69
2022-12-07T13:22:33.169Z,9.60
2022-12-07T13:25:13.305Z,9.75
2022-12-07T13:27:44.945Z,9.62
2022-12-07T13:30:22.095Z,9.76
2022-12-07T13:32:59.909Z,9.65
2022-12-07T13:35:33.526Z,9.64
2022-12-07T13:38:04.896Z,9.58
2022-12-07T13:40:31.675Z,9.51
2022-12-07T13:43:04.956Z,9.62
2022-12-07T13:45:34.098Z,9.76
2022-12-07T13:48:01.776Z,9.70
2022-12-07T13:50:31.384Z,9.72
2022-12-07T13:53:02.026Z,9.43
2022-12-07T13:55:30.143Z,10.39
2022-12-07T13:57:57.385Z,10.58
2022-12-07T14:00:26.697Z,10.25
2022-12-07T14:03:21.088Z,10.30
2022-12-07T14:06:03.614Z,10.20
2022-12-07T14:08:31.945Z,10.26
2022-12-07T14:11:00.046Z,10.44
2022-12-07T14:13:36.834Z,10.22
2022-12-07T14:16:26.074Z,10.34
2022-12-07T14:18:53.185Z,10.21
2022-12-07T14:21:22.773Z,10.30
2022-12-07T14:24:20.805Z,10.16
2022-12-07T14:26:51.847Z,10.27
2022-12-07T14:29:34.282Z,10.08
2022-12-07T14:32:21.138Z,10.48
2022-12-07T14:34:59.209Z,10.47
2022-12-07T14:37:28.571Z,10.22
2022-12-07T14:39:56.692Z,10.11
2022-12-07T14:42:27.955Z,10.24
2022-12-07T14:44:54.857Z,10.02
2022-12-07T14:50:10.039Z,10.08
2022-12-07T14:55:32.067Z,10.10
2022-12-07T14:57:59.969Z,10.21
2022-12-07T15:00:28.591Z,10.06
2022-12-07T15:02:55.618Z,10.36
2022-12-07T15:05:22.835Z,10.13
2022-12-07T15:07:51.894Z,10.39
2022-12-07T15:10:24.959Z,10.18
2022-12-07T15:12:52.451Z,10.42
2022-12-07T15:15:19.143Z,10.20
2022-12-07T15:17:45.991Z,10.00
2022-12-07T15:20:15.131Z,10.26
2022-12-07T15:22:42.101Z,10.52
2022-12-07T15:25:13.698Z,10.29
2022-12-07T15:27:40.349Z,10.34
2022-12-07T15:30:07.956Z,10.31
2022-12-07T15:32:34.892Z,10.14
2022-12-07T15:35:02.153Z,9.88
2022-12-07T15:37:32.307Z,10.43
2022-12-07T15:40:04.113Z,10.73
2022-12-07T15:42:34.237Z,10.57
2022-12-07T15:45:01.183Z,10.47
2022-12-07T15:47:28.262Z,10.70
2022-12-07T15:49:57.590Z,10.31
2022-12-07T15:52:24.325Z,10.40
2022-12-07T15:54:51.025Z,10.60
2022-12-07T15:57:22.195Z,10.89
2022-12-07T15:59:51.969Z,10.39
2022-12-07T16:02:18.945Z,10.40
2022-12-07T16:04:45.696Z,10.37
2022-12-07T16:07:12.885Z,10.67
2022-12-07T16:09:39.679Z,10.03
2022-12-07T16:12:06.817Z,10.27
2022-12-07T16:14:34.451Z,10.06
2022-12-07T16:17:01.339Z,10.34
2022-12-07T16:19:28.271Z,10.12
2022-12-07T16:21:55.025Z,10.50
2022-12-07T16:24:21.804Z,10.65
2022-12-07T16:26:50.404Z,10.56
2022-12-07T16:29:20.279Z,10.38
2022-12-07T16:31:50.377Z,10.20
2022-12-07T16:34:17.411Z,10.30
2022-12-07T16:39:31.332Z,10.51
2022-12-07T16:41:58.088Z,10.48
2022-12-07T16:44:24.783Z,10.31
2022-12-07T16:46:51.591Z,10.12
2022-12-07T16:49:18.769Z,10.12
2022-12-07T16:51:45.513Z,10.66
2022-12-07T16:54:13.353Z,11.08
2022-12-07T16:56:40.900Z,11.23
2022-12-07T16:59:07.674Z,11.56
2022-12-07T17:01:34.625Z,11.67
2022-12-07T17:04:01.671Z,11.54
2022-12-07T17:06:29.684Z,11.53
2022-12-07T17:08:57.797Z,11.29
2022-12-07T17:11:30.387Z,11.56
2022-12-07T17:13:57.731Z,11.18
2022-12-07T17:16:24.606Z,11.76
2022-12-07T17:18:51.437Z,11.44
2022-12-07T17:21:18.453Z,11.24
2022-12-07T17:23:45.444Z,10.97
2022-12-07T17:26:15.955Z,10.78
2022-12-07T17:28:42.793Z,10.77
2022-12-07T17:31:12.130Z,10.62
2022-12-07T17:33:39.404Z,10.62
2022-12-07T17:36:12.972Z,10.51
2022-12-07T17:38:40.328Z,10.58
2022-12-07T17:41:18.512Z,10.84
2022-12-07T17:43:45.349Z,10.84
2022-12-07T17:46:12.228Z,11.16
2022-12-07T17:48:38.924Z,10.90
2022-12-07T17:51:05.714Z,11.08
2022-12-07T17:53:32.419Z,10.83
2022-12-07T17:58:45.749Z,10.66
2022-12-07T18:01:12.592Z,10.54
2022-12-07T18:03:39.486Z,10.42
2022-12-07T18:06:06.542Z,10.55
2022-12-07T18:08:36.360Z,10.22
2022-12-07T18:11:03.209Z,10.47
2022-12-07T18:13:30.478Z,10.30
2022-12-07T18:15:58.415Z,10.41
2022-12-07T18:18:26.339Z,10.26
2022-12-07T18:20:53.081Z,10.25
2022-12-07T18:23:20.077Z,10.10
2022-12-07T18:25:51.222Z,10.21
2022-12-07T18:28:18.212Z,10.22
2022-12-07T18:31:13.600Z,9.95
2022-12-07T18:33:31.823Z,10.09
2022-12-07T18:36:00.642Z,10.26
2022-12-07T18:38:30.755Z,10.72
2022-12-07T18:40:57.966Z,10.64
2022-12-07T18:43:25.289Z,11.06
2022-12-07T18:45:55.976Z,10.81
2022-12-07T18:48:23.283Z,10.66
2022-12-07T18:51:01.526Z,10.34
2022-12-07T18:53:28.387Z,10.46
2022-12-07T18:56:03.319Z,10.46
2022-12-07T18:58:30.105Z,10.34
2022-12-07T19:00:57.010Z,10.25
2022-12-07T19:03:27.430Z,10.36
2022-12-07T19:05:57.569Z,10.05
2022-12-07T19:08:25.542Z,10.28
2022-12-07T19:10:53.693Z,10.28
2022-12-07T19:13:20.485Z,10.23
2022-12-07T19:15:47.252Z,10.10
2022-12-07T19:18:13.971Z,10.25
2022-12-07T19:20:40.749Z,10.23
2022-12-07T19:23:07.554Z,10.38
2022-12-07T19:25:34.753Z,10.28
2022-12-07T19:28:01.600Z,10.24
2022-12-07T19:30:28.393Z,10.34
2022-12-07T19:32:55.163Z,10.28
2022-12-07T19:35:22.136Z,10.40
2022-12-07T19:37:49.095Z,10.07
2022-12-07T19:40:15.961Z,10.15
2022-12-07T19:42:42.782Z,10.41
2022-12-07T19:45:10.028Z,10.50
2022-12-07T19:47:36.775Z,10.32
2022-12-07T19:50:03.843Z,10.36
2022-12-07T19:52:36.361Z,10.35
2022-12-07T19:55:04.184Z,10.48
2022-12-07T19:57:31.059Z,10.57
2022-12-07T19:59:57.945Z,10.74
2022-12-07T20:02:24.800Z,10.59
2022-12-07T20:04:51.553Z,10.47
2022-12-07T20:07:18.415Z,10.51
2022-12-07T20:09:45.146Z,10.88
2022-12-07T20:12:12.188Z,10.54
2022-12-07T20:14:39.045Z,10.85
2022-12-07T20:17:06.190Z,10.65
2022-12-07T20:19:35.219Z,10.83
2022-12-07T20:22:02.028Z,10.64
2022-12-07T20:24:28.751Z,10.57
2022-12-07T20:26:55.435Z,10.77
2022-12-07T20:29:24.744Z,10.84
2022-12-07T20:31:53.722Z,10.75
2022-12-07T20:34:20.868Z,10.70
2022-12-07T20:36:47.670Z,10.82
2022-12-07T20:39:14.918Z,10.97
2022-12-07T20:41:41.814Z,10.94
2022-12-07T20:44:08.535Z,10.80
2022-12-07T20:46:35.615Z,10.89
2022-12-07T20:49:02.589Z,10.76
2022-12-07T20:51:29.732Z,11.02
2022-12-07T20:53:56.869Z,10.99
2022-12-07T20:56:27.112Z,10.98
2022-12-07T20:58:55.139Z,10.78
2022-12-07T21:01:21.974Z,11.10
2022-12-07T21:03:49.049Z,11.21
2022-12-07T21:06:18.191Z,11.29
2022-12-07T21:08:46.506Z,11.29
2022-12-07T21:11:14.306Z,11.30
2022-12-07T21:13:41.640Z,11.69
2022-12-07T21:16:16.113Z,11.45
2022-12-07T21:18:43.149Z,11.57
2022-12-07T21:21:10.374Z,11.28
2022-12-07T21:23:38.116Z,11.52
2022-12-07T21:26:13.034Z,11.44
2022-12-07T21:28:40.218Z,11.37
2022-12-07T21:31:14.770Z,11.10
2022-12-07T21:33:42.818Z,11.52
2022-12-07T21:36:11.868Z,11.74
2022-12-07T21:38:38.737Z,11.45
2022-12-07T21:41:19.684Z,11.43
2022-12-07T21:43:47.881Z,11.25
2022-12-07T21:46:16.146Z,11.25
2022-12-07T21:48:44.052Z,11.43
2022-12-07T21:51:13.469Z,11.05
2022-12-07T21:53:42.120Z,11.41
2022-12-07T21:56:24.107Z,11.01
2022-12-07T21:58:52.156Z,11.48
2022-12-07T22:01:22.218Z,11.49
2022-12-07T22:03:49.649Z,11.83
2022-12-07T22:06:22.109Z,11.64
2022-12-07T22:08:49.132Z,11.30
2022-12-07T22:11:16.681Z,11.53
2022-12-07T22:13:45.794Z,11.69
2022-12-07T22:16:12.558Z,11.70
2022-12-07T22:18:39.326Z,11.46
2022-12-07T22:21:06.073Z,11.44
2022-12-07T22:23:33.428Z,11.62
2022-12-07T22:26:04.375Z,11.68
2022-12-07T22:28:31.061Z,11.54
2022-12-07T22:31:03.491Z,11.66
2022-12-07T22:33:30.420Z,11.36
2022-12-07T22:35:57.156Z,11.27
2022-12-07T22:38:23.924Z,11.71
2022-12-07T22:40:50.633Z,11.48
2022-12-07T22:43:17.470Z,11.53
2022-12-07T22:45:44.342Z,11.37
2022-12-07T22:48:11.040Z,11.13
2022-12-07T22:50:37.745Z,11.05
2022-12-07T22:53:04.409Z,11.34
2022-12-07T22:55:31.166Z,11.38
2022-12-07T22:57:57.823Z,11.46
2022-12-07T23:00:24.647Z,11.21
2022-12-07T23:02:51.482Z,11.32
2022-12-07T23:05:18.237Z,11.19
2022-12-07T23:07:45.054Z,11.21
2022-12-07T23:10:12.110Z,11.19
2022-12-07T23:12:38.890Z,11.18
2022-12-07T23:15:06.773Z,10.87
2022-12-07T23:17:35.845Z,11.12
2022-12-07T23:20:03.651Z,10.87
2022-12-07T23:22:30.459Z,11.08
2022-12-07T23:24:57.188Z,11.24
2022-12-07T23:27:23.954Z,11.25
2022-12-07T23:29:50.836Z,10.98
2022-12-07T23:32:17.638Z,11.07
2022-12-07T23:34:44.367Z,10.92
2022-12-07T23:37:11.113Z,10.88
2022-12-07T23:39:37.803Z,11.15
2022-12-07T23:42:04.685Z,10.92
2022-12-07T23:44:31.466Z,11.05
2022-12-07T23:46:58.233Z,11.00
2022-12-07T23:49:24.986Z,10.90
2022-12-07T23:51:51.786Z,10.83
2022-12-07T23:54:18.706Z,10.92
2022-12-07T23:56:45.511Z,10.87
2022-12-07T23:59:12.890Z,11.17
